createdAt,value
2022-08-02T00:01:43.681Z,98927.66
2022-08-02T00:04:11.308Z,98918.84
2022-08-02T00:06:39.221Z,98921.75
2022-08-02T00:09:06.208Z,98918.06
2022-08-02T00:11:34.003Z,98919.53
2022-08-02T00:14:01.033Z,98914.44
2022-08-02T00:16:37.398Z,98910.88
2022-08-02T00:19:06.274Z,98915.50
2022-08-02T00:21:33.169Z,98909.53
2022-08-02T00:24:27.755Z,98901.94
2022-08-02T00:26:46.955Z,98902.47
2022-08-02T00:29:13.805Z,98894.91
2022-08-02T00:31:40.839Z,98905.09
2022-08-02T00:34:30.466Z,98906.66
2022-08-02T00:36:55.147Z,98905.91
2022-08-02T00:39:34.665Z,98905.81
2022-08-02T00:42:03.646Z,98911.22
2022-08-02T00:44:30.676Z,98911.22
2022-08-02T00:46:57.576Z,98912.00
2022-08-02T00:49:24.537Z,98913.72
2022-08-02T00:51:51.743Z,98917.28
2022-08-02T00:54:19.989Z,98914.94
2022-08-02T00:56:50.038Z,98921.41
2022-08-02T00:59:19.051Z,98921.94
2022-08-02T01:01:54.809Z,98926.97
2022-08-02T01:04:30.303Z,98921.16
2022-08-02T01:07:13.079Z,98916.09
2022-08-02T01:09:45.477Z,98919.94
2022-08-02T01:12:13.624Z,98925.03
2022-08-02T01:14:46.040Z,98927.53
2022-08-02T01:17:19.641Z,98929.88
2022-08-02T01:20:31.949Z,98926.78
2022-08-02T01:23:04.739Z,98937.94
2022-08-02T01:26:02.081Z,98931.94
2022-08-02T01:28:53.388Z,98941.28
2022-08-02T01:31:48.794Z,98942.66
2022-08-02T01:34:46.927Z,98940.50
2022-08-02T01:37:28.631Z,98946.88
2022-08-02T01:40:06.601Z,98956.09
2022-08-02T01:42:34.818Z,98956.56
2022-08-02T01:45:04.476Z,98958.03
2022-08-02T01:47:37.190Z,98957.88
2022-08-02T01:50:09.252Z,98964.34
2022-08-02T01:52:53.513Z,98963.63
2022-08-02T01:55:33.530Z,98961.78
2022-08-02T01:58:18.962Z,98970.00
2022-08-02T02:00:48.295Z,98967.91
2022-08-02T02:03:22.034Z,98966.91
2022-08-02T02:05:52.404Z,98966.88
2022-08-02T02:08:26.938Z,98969.41
2022-08-02T02:10:57.658Z,98959.28
2022-08-02T02:13:45.364Z,98952.34
2022-08-02T02:16:15.300Z,98949.84
2022-08-02T02:18:44.920Z,98950.84
2022-08-02T02:21:13.125Z,98941.13
2022-08-02T02:23:40.717Z,98939.75
2022-08-02T02:26:13.619Z,98944.19
2022-08-02T02:28:43.242Z,98929.09
2022-08-02T02:31:15.818Z,98925.03
2022-08-02T02:34:02.402Z,98928.94
2022-08-02T02:36:33.350Z,98926.19
2022-08-02T02:39:10.201Z,98923.72
2022-08-02T02:41:43.476Z,98915.91
2022-08-02T02:44:18.474Z,98924.31
2022-08-02T02:46:49.439Z,98926.69
2022-08-02T02:49:18.998Z,98923.28
2022-08-02T02:51:47.693Z,98920.25
2022-08-02T02:54:30.450Z,98919.88
2022-08-02T02:57:04.268Z,98920.06
2022-08-02T02:59:33.958Z,98910.97
2022-08-02T03:02:01.851Z,98923.34
2022-08-02T03:04:55.578Z,98916.94
2022-08-02T03:07:19.186Z,98917.91
2022-08-02T03:09:53.801Z,98923.59
2022-08-02T03:12:30.187Z,98922.56
2022-08-02T03:15:01.716Z,98926.31
2022-08-02T03:17:46.276Z,98918.69
2022-08-02T03:20:20.376Z,98930.41
2022-08-02T03:22:47.637Z,98926.13
2022-08-02T03:25:17.822Z,98931.63
2022-08-02T03:27:45.034Z,98928.97
2022-08-02T03:30:14.458Z,98936.59
2022-08-02T03:32:44.982Z,98934.09
2022-08-02T03:35:18.539Z,98934.00
2022-08-02T03:37:52.072Z,98939.50
2022-08-02T03:40:19.440Z,98946.81
2022-08-02T03:42:47.836Z,98950.06
2022-08-02T03:45:15.098Z,98957.44
2022-08-02T03:47:44.548Z,98956.31
2022-08-02T03:50:13.649Z,98950.81
2022-08-02T03:52:43.032Z,98955.84
2022-08-02T03:55:12.536Z,98959.31
2022-08-02T03:57:42.249Z,98960.38
2022-08-02T04:00:13.302Z,98957.34
2022-08-02T04:02:40.376Z,98952.22
2022-08-02T04:05:07.997Z,98954.00
2022-08-02T04:08:32.581Z,98958.00
2022-08-02T04:10:21.648Z,98958.28
2022-08-02T04:12:48.596Z,98962.63
2022-08-02T04:15:15.960Z,98956.38
2022-08-02T04:17:52.923Z,98957.34
2022-08-02T04:20:27.404Z,98953.59
2022-08-02T04:23:08.316Z,98966.38
2022-08-02T04:25:40.123Z,98964.44
2022-08-02T04:28:16.709Z,98972.94
2022-08-02T04:30:48.214Z,98970.94
2022-08-02T04:33:16.419Z,98973.84
2022-08-02T04:35:44.533Z,98969.50
2022-08-02T04:38:14.690Z,98966.41
2022-08-02T04:40:50.917Z,98974.22
2022-08-02T04:43:18.645Z,98973.72
2022-08-02T04:45:49.515Z,98972.28
2022-08-02T04:48:16.363Z,98971.81
2022-08-02T04:50:43.300Z,98966.22
2022-08-02T04:53:10.203Z,98967.81
2022-08-02T04:55:37.059Z,98967.66
2022-08-02T04:58:18.338Z,98976.41
2022-08-02T05:00:51.017Z,98977.13
2022-08-02T05:03:17.901Z,98983.16
2022-08-02T05:05:44.768Z,98983.03
2022-08-02T05:08:11.657Z,98984.41
2022-08-02T05:10:38.565Z,98978.47
2022-08-02T05:13:06.132Z,98976.72
2022-08-02T05:15:33.555Z,98976.88
2022-08-02T05:18:00.520Z,98982.03
2022-08-02T05:20:27.715Z,98979.09
2022-08-02T05:22:54.721Z,98982.03
2022-08-02T05:25:21.615Z,98973.88
2022-08-02T05:27:48.520Z,98981.59
2022-08-02T05:30:15.567Z,98978.84
2022-08-02T05:32:50.514Z,98977.78
2022-08-02T05:35:20.285Z,98978.84
2022-08-02T05:37:48.366Z,98980.06
2022-08-02T05:40:16.035Z,98980.78
2022-08-02T05:42:43.465Z,98981.06
2022-08-02T05:45:11.340Z,98974.47
2022-08-02T05:47:39.033Z,98978.38
2022-08-02T05:50:10.530Z,98984.97
2022-08-02T05:52:56.710Z,98984.41
2022-08-02T05:55:40.243Z,98985.56
2022-08-02T05:58:27.796Z,98986.75
2022-08-02T06:00:58.857Z,98990.72
2022-08-02T06:03:41.330Z,98997.22
2022-08-02T06:06:22.704Z,99001.84
2022-08-02T06:09:02.387Z,99001.94
2022-08-02T06:12:00.736Z,99007.59
2022-08-02T06:14:33.831Z,98997.13
2022-08-02T06:17:05.108Z,99002.06
2022-08-02T06:19:50.837Z,98999.28
2022-08-02T06:22:32.329Z,98996.34
2022-08-02T06:25:06.638Z,98979.44
2022-08-02T06:27:53.845Z,98984.50
2022-08-02T06:30:21.213Z,98992.44
2022-08-02T06:32:52.077Z,98990.69
2022-08-02T06:35:19.617Z,98984.97
2022-08-02T06:37:58.459Z,98980.59
2022-08-02T06:40:48.623Z,98989.19
2022-08-02T06:43:34.817Z,98975.47
2022-08-02T06:46:34.444Z,98980.25
2022-08-02T06:48:51.026Z,98976.16
2022-08-02T06:51:18.635Z,98983.00
2022-08-02T06:53:46.257Z,98984.97
2022-08-02T06:56:13.526Z,98985.16
2022-08-02T06:58:40.452Z,98987.00
2022-08-02T07:01:09.723Z,98981.22
2022-08-02T07:03:41.431Z,98978.25
2022-08-02T07:06:11.837Z,98991.06
2022-08-02T07:08:39.492Z,98983.31
2022-08-02T07:11:08.989Z,98971.53
2022-08-02T07:13:39.966Z,98984.34
2022-08-02T07:16:07.743Z,98978.22
2022-08-02T07:18:35.610Z,98980.28
2022-08-02T07:21:08.847Z,98972.38
2022-08-02T07:23:36.089Z,98977.44
2022-08-02T07:26:04.823Z,98983.88
2022-08-02T07:28:32.841Z,98986.28
2022-08-02T07:30:59.805Z,98983.63
2022-08-02T07:33:37.595Z,98998.22
2022-08-02T07:36:09.882Z,98992.34
2022-08-02T07:38:44.084Z,98998.09
2022-08-02T07:41:12.518Z,99001.78
2022-08-02T07:43:39.489Z,99004.03
2022-08-02T07:46:06.341Z,99010.56
2022-08-02T07:48:33.487Z,99005.16
2022-08-02T07:51:00.729Z,98999.41
2022-08-02T07:53:50.283Z,99006.66
2022-08-02T07:56:17.089Z,99002.38
2022-08-02T07:58:43.940Z,99003.25
2022-08-02T08:01:11.468Z,98999.75
2022-08-02T08:03:38.850Z,99003.81
2022-08-02T08:06:05.858Z,99004.69
2022-08-02T08:08:35.079Z,99012.63
2022-08-02T08:11:02.305Z,99009.53
2022-08-02T08:13:29.509Z,99003.97
2022-08-02T08:15:56.357Z,99007.56
2022-08-02T08:18:23.318Z,99003.63
2022-08-02T08:20:51.580Z,99006.41
2022-08-02T08:23:18.489Z,98989.38
2022-08-02T08:25:45.304Z,98992.16
2022-08-02T08:28:12.720Z,98989.75
2022-08-02T08:30:42.444Z,98991.31
2022-08-02T08:33:09.885Z,98990.53
2022-08-02T08:35:39.162Z,98993.69
2022-08-02T08:38:07.906Z,98994.88
2022-08-02T08:40:35.078Z,98986.13
2022-08-02T08:43:01.933Z,98984.34
2022-08-02T08:45:29.051Z,98986.59
2022-08-02T08:48:21.758Z,98988.41
2022-08-02T08:51:07.012Z,98991.09
2022-08-02T08:53:42.123Z,98993.75
2022-08-02T08:56:15.959Z,98990.03
2022-08-02T08:58:47.230Z,98983.91
2022-08-02T09:01:16.903Z,98976.28
2022-08-02T09:03:45.561Z,98977.19
2022-08-02T09:06:12.489Z,98972.59
2022-08-02T09:08:39.401Z,98970.44
2022-08-02T09:11:19.678Z,98966.06
2022-08-02T09:14:05.678Z,98968.28
2022-08-02T09:16:42.279Z,98966.72
2022-08-02T09:19:23.599Z,98972.34
2022-08-02T09:22:01.613Z,98968.38
2022-08-02T09:24:31.594Z,98971.53
2022-08-02T09:26:58.863Z,98964.19
2022-08-02T09:29:27.424Z,98967.09
2022-08-02T09:32:03.946Z,98964.59
2022-08-02T09:34:52.799Z,98969.44
2022-08-02T09:37:31.019Z,98967.38
2022-08-02T09:40:00.695Z,98963.09
2022-08-02T09:42:30.650Z,98963.41
2022-08-02T09:45:01.397Z,98965.31
2022-08-02T09:47:31.085Z,98961.81
2022-08-02T09:49:59.179Z,98968.63
2022-08-02T09:52:37.422Z,98973.22
2022-08-02T09:55:11.919Z,98967.19
2022-08-02T09:58:21.592Z,98958.34
2022-08-02T10:01:01.179Z,98953.41
2022-08-02T10:03:35.226Z,98954.19
2022-08-02T10:06:04.769Z,98951.31
2022-08-02T10:08:33.901Z,98953.16
2022-08-02T10:11:03.138Z,98944.34
2022-08-02T10:13:35.493Z,98952.72
2022-08-02T10:16:03.957Z,98945.63
2022-08-02T10:18:40.753Z,98944.13
2022-08-02T10:21:14.909Z,98940.56
2022-08-02T10:23:45.626Z,98941.41
2022-08-02T10:26:19.691Z,98939.41
2022-08-02T10:28:49.494Z,98933.84
2022-08-02T10:31:28.345Z,98939.59
2022-08-02T10:33:58.948Z,98930.53
2022-08-02T10:36:29.844Z,98934.81
2022-08-02T10:38:58.783Z,98929.22
2022-08-02T10:41:52.348Z,98935.38
2022-08-02T10:44:31.848Z,98917.88
2022-08-02T10:47:18.622Z,98928.28
2022-08-02T10:50:00.396Z,98919.03
2022-08-02T10:52:31.516Z,98919.00
2022-08-02T10:55:22.174Z,98907.38
2022-08-02T10:58:18.237Z,98907.56
2022-08-02T11:00:46.065Z,98912.72
2022-08-02T11:03:41.166Z,98910.56
2022-08-02T11:06:24.574Z,98910.47
2022-08-02T11:09:33.446Z,98911.38
2022-08-02T11:12:06.090Z,98911.94
2022-08-02T11:14:43.209Z,98895.53
2022-08-02T11:17:18.934Z,98894.72
2022-08-02T11:20:10.828Z,98900.66
2022-08-02T11:22:41.616Z,98889.34
2022-08-02T11:25:42.982Z,98892.47
2022-08-02T11:28:16.194Z,98886.81
2022-08-02T11:30:46.659Z,98892.16
2022-08-02T11:33:14.189Z,98886.78
2022-08-02T11:35:41.438Z,98890.38
2022-08-02T11:38:20.780Z,98880.06
2022-08-02T11:40:49.481Z,98883.13
2022-08-02T11:43:19.392Z,98884.09
2022-08-02T11:45:47.485Z,98879.34
2022-08-02T11:48:14.417Z,98876.75
2022-08-02T11:50:41.568Z,98872.66
2022-08-02T11:53:16.487Z,98877.53
2022-08-02T11:55:43.502Z,98874.03
2022-08-02T11:58:11.619Z,98877.16
2022-08-02T12:00:39.258Z,98883.16
2022-08-02T12:03:07.628Z,98879.69
2022-08-02T12:06:05.307Z,98863.50
2022-08-02T12:08:25.242Z,98865.06
2022-08-02T12:10:52.507Z,98872.78
2022-08-02T12:13:19.499Z,98871.41
2022-08-02T12:15:47.443Z,98872.34
2022-08-02T12:18:38.780Z,98870.25
2022-08-02T12:21:27.090Z,98860.72
2022-08-02T12:23:59.875Z,98869.47
2022-08-02T12:26:30.080Z,98859.25
2022-08-02T12:29:02.460Z,98862.00
2022-08-02T12:31:56.743Z,98868.50
2022-08-02T12:34:32.269Z,98857.78
2022-08-02T12:37:25.330Z,98857.88
2022-08-02T12:39:54.211Z,98856.59
2022-08-02T12:42:21.268Z,98853.97
2022-08-02T12:45:00.026Z,98858.69
2022-08-02T12:47:35.657Z,98856.22
2022-08-02T12:50:37.077Z,98849.72
2022-08-02T12:53:14.127Z,98851.47
2022-08-02T12:55:59.319Z,98843.19
2022-08-02T12:58:30.359Z,98845.59
2022-08-02T13:01:01.798Z,98838.97
2022-08-02T13:04:10.627Z,98836.69
2022-08-02T13:06:43.014Z,98829.84
2022-08-02T13:09:17.139Z,98827.75
2022-08-02T13:11:44.889Z,98827.25
2022-08-02T13:14:14.485Z,98826.22
2022-08-02T13:16:46.326Z,98831.38
2022-08-02T13:19:15.651Z,98825.59
2022-08-02T13:22:00.991Z,98823.16
2022-08-02T13:24:40.695Z,98823.97
2022-08-02T13:27:21.426Z,98827.56
2022-08-02T13:29:50.599Z,98827.03
2022-08-02T13:32:17.938Z,98822.75
2022-08-02T13:34:45.628Z,98819.25
2022-08-02T13:37:13.124Z,98817.81
2022-08-02T13:39:48.145Z,98812.94
2022-08-02T13:42:23.211Z,98821.09
2022-08-02T13:44:50.286Z,98811.53
2022-08-02T13:47:26.468Z,98810.94
2022-08-02T13:50:02.942Z,98800.88
2022-08-02T13:52:29.904Z,98806.03
2022-08-02T13:54:56.951Z,98799.00
2022-08-02T13:57:23.999Z,98797.91
2022-08-02T13:59:55.865Z,98790.78
2022-08-02T14:02:25.400Z,98785.81
2022-08-02T14:04:52.206Z,98788.88
2022-08-02T14:07:19.468Z,98795.81
2022-08-02T14:09:47.699Z,98785.91
2022-08-02T14:12:15.059Z,98793.66
2022-08-02T14:14:42.327Z,98777.09
2022-08-02T14:17:09.338Z,98782.47
2022-08-02T14:19:36.381Z,98781.22
2022-08-02T14:22:11.039Z,98775.16
2022-08-02T14:24:39.805Z,98781.19
2022-08-02T14:27:07.239Z,98779.50
2022-08-02T14:29:34.721Z,98773.41
2022-08-02T14:32:02.002Z,98778.88
2022-08-02T14:34:29.528Z,98772.34
2022-08-02T14:36:57.106Z,98777.81
2022-08-02T14:39:24.242Z,98768.34
2022-08-02T14:41:58.873Z,98774.22
2022-08-02T14:44:28.910Z,98774.88
2022-08-02T14:46:56.416Z,98770.66
2022-08-02T14:49:25.919Z,98777.22
2022-08-02T14:51:58.051Z,98771.09
2022-08-02T14:54:30.899Z,98764.53
2022-08-02T14:57:03.637Z,98769.91
2022-08-02T14:59:31.100Z,98767.94
2022-08-02T15:01:59.546Z,98769.19
2022-08-02T15:04:27.276Z,98768.47
2022-08-02T15:06:55.064Z,98760.03
2022-08-02T15:09:22.228Z,98760.09
2022-08-02T15:11:49.857Z,98746.84
2022-08-02T15:14:25.669Z,98753.56
2022-08-02T15:16:57.036Z,98749.00
2022-08-02T15:19:25.811Z,98749.59
2022-08-02T15:21:58.533Z,98749.78
2022-08-02T15:24:30.184Z,98744.59
2022-08-02T15:26:57.087Z,98745.84
2022-08-02T15:29:24.083Z,98746.72
2022-08-02T15:31:53.863Z,98735.00
2022-08-02T15:34:20.865Z,98740.75
2022-08-02T15:36:47.731Z,98736.81
2022-08-02T15:39:14.544Z,98735.78
2022-08-02T15:41:41.453Z,98739.09
2022-08-02T15:44:09.733Z,98740.47
2022-08-02T15:46:38.387Z,98729.78
2022-08-02T15:49:06.772Z,98740.84
2022-08-02T15:51:33.726Z,98733.47
2022-08-02T15:54:00.705Z,98732.59
2022-08-02T15:56:27.601Z,98733.03
2022-08-02T15:58:57.005Z,98736.09
2022-08-02T16:01:37.414Z,98741.00
2022-08-02T16:04:07.389Z,98734.06
2022-08-02T16:06:35.688Z,98739.47
2022-08-02T16:09:03.728Z,98737.69
2022-08-02T16:11:30.674Z,98739.34
2022-08-02T16:14:02.514Z,98734.38
2022-08-02T16:16:35.524Z,98726.72
2022-08-02T16:19:47.083Z,98732.53
2022-08-02T16:21:53.891Z,98717.31
2022-08-02T16:24:21.391Z,98723.38
2022-08-02T16:26:48.899Z,98714.75
2022-08-02T16:29:19.117Z,98721.22
2022-08-02T16:31:47.384Z,98722.97
2022-08-02T16:34:15.216Z,98721.59
2022-08-02T16:36:42.084Z,98722.63
2022-08-02T16:39:08.953Z,98723.41
2022-08-02T16:41:50.490Z,98717.38
2022-08-02T16:44:27.611Z,98713.44
2022-08-02T16:47:01.128Z,98710.56
2022-08-02T16:50:04.205Z,98711.16
2022-08-02T16:52:19.650Z,98712.63
2022-08-02T16:54:49.307Z,98708.44
2022-08-02T16:57:19.729Z,98706.09
2022-08-02T16:59:58.208Z,98712.91
2022-08-02T17:02:27.862Z,98713.25
2022-08-02T17:04:55.720Z,98717.34
2022-08-02T17:08:07.424Z,98716.31
2022-08-02T17:10:11.708Z,98711.94
2022-08-02T17:12:39.562Z,98718.03
2022-08-02T17:15:53.014Z,98713.31
2022-08-02T17:17:55.975Z,98718.78
2022-08-02T17:20:24.306Z,98717.03
2022-08-02T17:22:52.531Z,98713.44
2022-08-02T17:25:20.528Z,98718.94
2022-08-02T17:27:55.704Z,98717.38
2022-08-02T17:30:26.832Z,98712.22
2022-08-02T17:33:10.828Z,98715.88
2022-08-02T17:35:43.551Z,98718.03
2022-08-02T17:38:26.199Z,98703.34
2022-08-02T17:40:54.675Z,98716.53
2022-08-02T17:43:21.806Z,98717.41
2022-08-02T17:46:01.086Z,98710.66
2022-08-02T17:48:49.463Z,98709.88
2022-08-02T17:51:33.177Z,98714.31
2022-08-02T17:54:04.187Z,98717.19
2022-08-02T17:56:31.552Z,98717.72
2022-08-02T17:59:20.182Z,98720.91
2022-08-02T18:02:01.115Z,98731.75
2022-08-02T18:04:31.505Z,98724.31
2022-08-02T18:07:03.866Z,98726.38
2022-08-02T18:09:31.883Z,98728.06
2022-08-02T18:11:58.897Z,98730.41
2022-08-02T18:14:26.510Z,98731.72
2022-08-02T18:16:53.785Z,98730.16
2022-08-02T18:19:20.643Z,98727.00
2022-08-02T18:21:49.447Z,98730.22
2022-08-02T18:24:16.517Z,98724.34
2022-08-02T18:26:43.711Z,98729.97
2022-08-02T18:29:12.208Z,98728.53
2022-08-02T18:31:40.192Z,98729.44
2022-08-02T18:34:24.354Z,98724.66
2022-08-02T18:36:51.855Z,98722.44
2022-08-02T18:39:18.858Z,98723.78
2022-08-02T18:41:47.978Z,98729.44
2022-08-02T18:44:18.612Z,98734.25
2022-08-02T18:46:46.289Z,98734.31
2022-08-02T18:49:16.434Z,98736.81
2022-08-02T18:51:44.581Z,98731.34
2022-08-02T18:54:11.708Z,98734.19
2022-08-02T18:56:39.101Z,98737.88
2022-08-02T18:59:07.660Z,98740.47
2022-08-02T19:01:39.523Z,98734.63
2022-08-02T19:04:15.675Z,98742.69
2022-08-02T19:06:54.221Z,98732.81
2022-08-02T19:09:21.297Z,98731.41
2022-08-02T19:11:50.369Z,98741.56
2022-08-02T19:14:27.917Z,98740.50
2022-08-02T19:16:57.813Z,98735.94
2022-08-02T19:19:28.827Z,98740.09
2022-08-02T19:22:16.277Z,98729.84
2022-08-02T19:24:47.038Z,98731.56
2022-08-02T19:27:15.287Z,98733.25
2022-08-02T19:29:48.842Z,98740.56
2022-08-02T19:32:41.646Z,98735.06
2022-08-02T19:35:19.422Z,98739.91
2022-08-02T19:37:59.255Z,98744.53
2022-08-02T19:40:29.021Z,98753.72
2022-08-02T19:44:23.173Z,98752.22
2022-08-02T19:45:49.830Z,98753.03
2022-08-02T19:48:23.513Z,98752.97
2022-08-02T19:50:56.790Z,98750.63
2022-08-02T19:53:46.495Z,98756.22
2022-08-02T19:56:24.779Z,98751.56
2022-08-02T19:58:54.827Z,98761.97
2022-08-02T20:01:37.211Z,98759.63
2022-08-02T20:04:13.073Z,98757.69
2022-08-02T20:06:46.136Z,98761.66
2022-08-02T20:09:17.143Z,98760.09
2022-08-02T20:11:54.850Z,98762.13
2022-08-02T20:14:26.734Z,98758.97
2022-08-02T20:16:58.160Z,98768.06
2022-08-02T20:19:29.197Z,98767.25
2022-08-02T20:22:00.040Z,98766.06
2022-08-02T20:24:28.405Z,98765.31
2022-08-02T20:26:59.177Z,98774.44
2022-08-02T20:29:43.114Z,98773.25
2022-08-02T20:32:11.842Z,98769.25
2022-08-02T20:34:38.959Z,98776.41
2022-08-02T20:37:55.971Z,98780.78
2022-08-02T20:39:53.728Z,98776.81
2022-08-02T20:42:23.362Z,98772.47
2022-08-02T20:44:55.810Z,98770.50
2022-08-02T20:47:38.875Z,98775.22
2022-08-02T20:50:30.497Z,98772.03
2022-08-02T20:53:03.218Z,98775.63
2022-08-02T20:55:31.979Z,98772.44
2022-08-02T20:58:04.436Z,98781.94
2022-08-02T21:00:32.209Z,98770.88
2022-08-02T21:03:00.754Z,98767.25
2022-08-02T21:05:54.240Z,98770.81
2022-08-02T21:08:20.542Z,98770.81
2022-08-02T21:10:52.209Z,98769.28
2022-08-02T21:13:22.427Z,98769.25
2022-08-02T21:15:55.048Z,98772.81
2022-08-02T21:18:30.539Z,98771.22
2022-08-02T21:21:00.707Z,98771.56
2022-08-02T21:23:28.696Z,98777.09
2022-08-02T21:25:57.902Z,98774.72
2022-08-02T21:28:43.611Z,98765.59
2022-08-02T21:31:15.830Z,98758.06
2022-08-02T21:33:57.499Z,98760.38
2022-08-02T21:36:32.983Z,98770.25
2022-08-02T21:39:09.228Z,98770.25
2022-08-02T21:41:46.442Z,98770.97
2022-08-02T21:44:21.588Z,98774.94
2022-08-02T21:46:53.301Z,98770.25
2022-08-02T21:49:40.707Z,98769.81
2022-08-02T21:52:10.378Z,98769.38
2022-08-02T21:54:39.638Z,98777.22
2022-08-02T21:59:55.424Z,98779.22
2022-08-02T22:02:30.937Z,98776.84
2022-08-02T22:04:58.551Z,98775.19
2022-08-02T22:07:25.527Z,98778.22
2022-08-02T22:09:53.379Z,98776.63
2022-08-02T22:12:21.910Z,98776.63
2022-08-02T22:14:55.729Z,98771.44
2022-08-02T22:17:52.317Z,98779.44
2022-08-02T22:20:15.422Z,98775.16
2022-08-02T22:22:44.936Z,98783.03
2022-08-02T22:25:26.803Z,98778.59
2022-08-02T22:28:35.762Z,98783.59
2022-08-02T22:30:51.156Z,98781.19
2022-08-02T22:33:42.584Z,98781.09
2022-08-02T22:36:18.502Z,98782.22
2022-08-02T22:38:47.185Z,98783.03
2022-08-02T22:41:15.735Z,98788.22
2022-08-02T22:43:43.427Z,98783.44
2022-08-02T22:46:15.422Z,98785.41
2022-08-02T22:48:45.436Z,98789.03
2022-08-02T22:51:14.495Z,98789.13
2022-08-02T22:53:43.976Z,98789.13
2022-08-02T22:56:12.765Z,98793.03
2022-08-02T22:59:03.804Z,98768.94
2022-08-02T22:59:11.274Z,98797.63
2022-08-02T23:01:29.818Z,98789.53
2022-08-02T23:03:56.793Z,98799.50
2022-08-02T23:06:23.589Z,98795.88
2022-08-02T23:08:50.558Z,98792.72
2022-08-02T23:11:17.648Z,98802.25
2022-08-02T23:13:44.769Z,98793.47
2022-08-02T23:16:30.503Z,98792.38
2022-08-02T23:19:15.743Z,98792.03
2022-08-02T23:22:02.043Z,98795.16
2022-08-02T23:24:30.453Z,98795.22
2022-08-02T23:26:57.516Z,98794.94
2022-08-02T23:29:24.563Z,98800.34
2022-08-02T23:31:51.504Z,98796.16
2022-08-02T23:34:19.909Z,98797.59
2022-08-02T23:36:46.752Z,98793.22
2022-08-02T23:39:13.641Z,98801.44
2022-08-02T23:41:40.726Z,98801.81
2022-08-02T23:44:15.434Z,98805.84
2022-08-02T23:46:47.136Z,98797.09
2022-08-02T23:49:16.686Z,98801.34
2022-08-02T23:51:44.019Z,98799.66
2022-08-02T23:54:12.312Z,98797.75
2022-08-02T23:56:40.800Z,98796.28
2022-08-02T23:59:08.688Z,98802.25
